sensor_id;sensor_type;location;lat;lon;timestamp;pressure;altitude;pressure_sealevel;temperature;humidity
60583;BME280;46415;47.536;19.066;2023-03-25T00:01:22;99496.97;;;14.77;78.00
60583;BME280;46415;47.536;19.066;2023-03-25T00:04:27;99494.00;;;14.81;77.39
60583;BME280;46415;47.536;19.066;2023-03-25T00:07:30;99498.53;;;14.90;76.01
60583;BME280;46415;47.536;19.066;2023-03-25T00:10:33;99494.50;;;14.86;76.08
60583;BME280;46415;47.536;19.066;2023-03-25T00:13:36;99503.53;;;14.93;73.91
60583;BME280;46415;47.536;19.066;2023-03-25T00:16:39;99504.97;;;14.97;73.53
60583;BME280;46415;47.536;19.066;2023-03-25T00:19:41;99497.50;;;15.04;72.65
60583;BME280;46415;47.536;19.066;2023-03-25T00:22:44;99489.06;;;15.11;71.18
60583;BME280;46415;47.536;19.066;2023-03-25T00:25:48;99494.53;;;15.20;70.58
60583;BME280;46415;47.536;19.066;2023-03-25T00:28:52;99493.59;;;15.21;70.53
60583;BME280;46415;47.536;19.066;2023-03-25T00:31:54;99504.19;;;15.30;70.04
60583;BME280;46415;47.536;19.066;2023-03-25T00:34:57;99498.97;;;15.30;70.14
60583;BME280;46415;47.536;19.066;2023-03-25T00:38:01;99493.25;;;15.25;70.75
60583;BME280;46415;47.536;19.066;2023-03-25T00:41:11;99494.53;;;15.20;71.45
60583;BME280;46415;47.536;19.066;2023-03-25T00:44:14;99503.56;;;15.16;72.14
60583;BME280;46415;47.536;19.066;2023-03-25T00:47:18;99497.50;;;15.15;72.35
60583;BME280;46415;47.536;19.066;2023-03-25T00:50:26;99493.56;;;15.09;72.80
60583;BME280;46415;47.536;19.066;2023-03-25T00:53:29;99499.41;;;15.13;72.96
60583;BME280;46415;47.536;19.066;2023-03-25T00:56:32;99502.25;;;15.21;73.03
60583;BME280;46415;47.536;19.066;2023-03-25T00:59:35;99503.47;;;15.17;73.51
60583;BME280;46415;47.536;19.066;2023-03-25T01:02:38;99505.44;;;15.13;74.49
60583;BME280;46415;47.536;19.066;2023-03-25T01:05:41;99506.66;;;15.32;74.17
60583;BME280;46415;47.536;19.066;2023-03-25T01:08:44;99504.31;;;15.29;74.94
60583;BME280;46415;47.536;19.066;2023-03-25T01:11:47;99514.75;;;15.29;75.64
60583;BME280;46415;47.536;19.066;2023-03-25T01:14:51;99503.56;;;15.16;77.09
60583;BME280;46415;47.536;19.066;2023-03-25T01:17:54;99504.75;;;15.11;79.50
60583;BME280;46415;47.536;19.066;2023-03-25T01:20:58;99497.37;;;15.05;81.36
60583;BME280;46415;47.536;19.066;2023-03-25T01:24:03;99494.75;;;14.94;83.04
60583;BME280;46415;47.536;19.066;2023-03-25T01:27:05;99507.06;;;14.81;85.24
60583;BME280;46415;47.536;19.066;2023-03-25T01:30:10;99492.91;;;14.73;87.22
60583;BME280;46415;47.536;19.066;2023-03-25T01:33:13;99500.59;;;14.63;89.04
60583;BME280;46415;47.536;19.066;2023-03-25T01:36:16;99495.91;;;14.44;91.49
60583;BME280;46415;47.536;19.066;2023-03-25T01:39:19;99506.84;;;14.37;92.87
60583;BME280;46415;47.536;19.066;2023-03-25T01:42:22;99502.91;;;14.31;94.54
60583;BME280;46415;47.536;19.066;2023-03-25T01:45:29;99502.53;;;14.24;95.44
60583;BME280;46415;47.536;19.066;2023-03-25T01:48:40;99506.25;;;14.09;97.88
60583;BME280;46415;47.536;19.066;2023-03-25T01:51:44;99503.59;;;13.98;100.00
60583;BME280;46415;47.536;19.066;2023-03-25T01:54:52;99512.59;;;13.94;100.00
60583;BME280;46415;47.536;19.066;2023-03-25T01:57:57;99509.69;;;13.86;100.00
60583;BME280;46415;47.536;19.066;2023-03-25T02:01:02;99518.78;;;13.80;100.00
60583;BME280;46415;47.536;19.066;2023-03-25T02:04:05;99512.31;;;13.73;100.00
60583;BME280;46415;47.536;19.066;2023-03-25T02:07:13;99523.59;;;13.74;100.00
60583;BME280;46415;47.536;19.066;2023-03-25T02:10:18;99539.16;;;13.63;100.00
60583;BME280;46415;47.536;19.066;2023-03-25T02:13:21;99536.66;;;13.48;100.00
60583;BME280;46415;47.536;19.066;2023-03-25T02:37:40;99530.75;;;12.42;100.00
60583;BME280;46415;47.536;19.066;2023-03-25T02:40:27;99535.59;;;12.34;100.00
60583;BME280;46415;47.536;19.066;2023-03-25T02:44:07;99523.50;;;12.20;100.00
60583;BME280;46415;47.536;19.066;2023-03-25T02:47:16;99527.59;;;12.10;100.00
60583;BME280;46415;47.536;19.066;2023-03-25T02:50:33;99517.44;;;11.93;100.00
60583;BME280;46415;47.536;19.066;2023-03-25T02:53:40;99512.16;;;11.80;100.00
60583;BME280;46415;47.536;19.066;2023-03-25T02:56:48;99510.28;;;11.68;100.00
60583;BME280;46415;47.536;19.066;2023-03-25T02:59:54;99513.37;;;11.61;100.00
60583;BME280;46415;47.536;19.066;2023-03-25T03:03:00;99517.28;;;11.54;100.00
60583;BME280;46415;47.536;19.066;2023-03-25T03:06:05;99515.72;;;11.37;100.00
60583;BME280;46415;47.536;19.066;2023-03-25T03:09:18;99518.84;;;11.42;100.00
60583;BME280;46415;47.536;19.066;2023-03-25T03:16:24;99522.47;;;11.25;100.00
60583;BME280;46415;47.536;19.066;2023-03-25T03:26:15;99531.59;;;11.02;100.00
60583;BME280;46415;47.536;19.066;2023-03-25T03:29:28;99533.66;;;10.97;100.00
60583;BME280;46415;47.536;19.066;2023-03-25T03:32:44;99535.69;;;10.92;100.00
60583;BME280;46415;47.536;19.066;2023-03-25T03:35:57;99540.12;;;10.90;100.00
60583;BME280;46415;47.536;19.066;2023-03-25T03:39:13;99541.22;;;10.72;100.00
60583;BME280;46415;47.536;19.066;2023-03-25T03:42:39;99540.03;;;10.62;100.00
60583;BME280;46415;47.536;19.066;2023-03-25T03:45:46;99556.53;;;10.61;100.00
60583;BME280;46415;47.536;19.066;2023-03-25T03:48:53;99554.97;;;10.58;100.00
60583;BME280;46415;47.536;19.066;2023-03-25T03:52:05;99555.22;;;10.54;100.00
60583;BME280;46415;47.536;19.066;2023-03-25T03:55:14;99564.84;;;10.52;100.00
60583;BME280;46415;47.536;19.066;2023-03-25T03:58:25;99569.59;;;10.59;100.00
60583;BME280;46415;47.536;19.066;2023-03-25T04:04:36;99578.09;;;10.47;100.00
60583;BME280;46415;47.536;19.066;2023-03-25T04:07:53;99584.59;;;10.39;100.00
60583;BME280;46415;47.536;19.066;2023-03-25T04:11:04;99582.19;;;10.36;100.00
60583;BME280;46415;47.536;19.066;2023-03-25T04:14:12;99585.38;;;10.41;100.00
60583;BME280;46415;47.536;19.066;2023-03-25T04:17:15;99594.06;;;10.40;100.00
60583;BME280;46415;47.536;19.066;2023-03-25T04:20:22;99586.62;;;10.34;100.00
60583;BME280;46415;47.536;19.066;2023-03-25T04:23:27;99597.84;;;10.34;100.00
60583;BME280;46415;47.536;19.066;2023-03-25T04:26:33;99606.94;;;10.41;100.00
60583;BME280;46415;47.536;19.066;2023-03-25T04:29:39;99607.53;;;10.46;100.00
60583;BME280;46415;47.536;19.066;2023-03-25T04:32:42;99606.84;;;10.43;100.00
60583;BME280;46415;47.536;19.066;2023-03-25T04:35:48;99616.06;;;10.48;100.00
60583;BME280;46415;47.536;19.066;2023-03-25T04:38:53;99612.47;;;10.35;100.00
60583;BME280;46415;47.536;19.066;2023-03-25T04:41:58;99615.56;;;10.42;100.00
60583;BME280;46415;47.536;19.066;2023-03-25T04:45:05;99624.09;;;10.44;100.00
60583;BME280;46415;47.536;19.066;2023-03-25T04:48:21;99622.34;;;10.44;100.00
60583;BME280;46415;47.536;19.066;2023-03-25T04:51:25;99627.03;;;10.38;100.00
60583;BME280;46415;47.536;19.066;2023-03-25T04:54:28;99626.19;;;10.37;100.00
60583;BME280;46415;47.536;19.066;2023-03-25T04:57:31;99627.03;;;10.38;100.00
60583;BME280;46415;47.536;19.066;2023-03-25T05:00:34;99636.66;;;10.36;100.00
60583;BME280;46415;47.536;19.066;2023-03-25T05:03:37;99644.19;;;10.40;100.00
60583;BME280;46415;47.536;19.066;2023-03-25T05:06:44;99633.72;;;10.42;100.00
60583;BME280;46415;47.536;19.066;2023-03-25T05:09:48;99644.00;;;10.43;100.00
60583;BME280;46415;47.536;19.066;2023-03-25T05:13:00;99646.25;;;10.49;100.00
60583;BME280;46415;47.536;19.066;2023-03-25T05:16:03;99651.97;;;10.40;100.00
60583;BME280;46415;47.536;19.066;2023-03-25T05:19:06;99650.94;;;10.43;100.00
60583;BME280;46415;47.536;19.066;2023-03-25T05:22:09;99661.31;;;10.43;100.00
60583;BME280;46415;47.536;19.066;2023-03-25T05:25:12;99662.66;;;10.50;100.00
60583;BME280;46415;47.536;19.066;2023-03-25T05:28:16;99659.91;;;10.37;100.00
60583;BME280;46415;47.536;19.066;2023-03-25T05:31:19;99658.47;;;10.32;100.00
60583;BME280;46415;47.536;19.066;2023-03-25T05:34:22;99662.69;;;10.34;100.00
60583;BME280;46415;47.536;19.066;2023-03-25T05:37:27;99666.50;;;10.43;100.00
60583;BME280;46415;47.536;19.066;2023-03-25T05:40:30;99669.03;;;10.44;100.00
60583;BME280;46415;47.536;19.066;2023-03-25T05:43:35;99662.41;;;10.39;100.00
60583;BME280;46415;47.536;19.066;2023-03-25T05:46:38;99668.03;;;10.47;100.00
60583;BME280;46415;47.536;19.066;2023-03-25T05:49:40;99662.19;;;10.59;100.00
60583;BME280;46415;47.536;19.066;2023-03-25T05:52:43;99661.84;;;10.65;100.00
60583;BME280;46415;47.536;19.066;2023-03-25T05:55:47;99663.66;;;10.79;100.00
60583;BME280;46415;47.536;19.066;2023-03-25T05:58:54;99660.31;;;10.77;100.00
60583;BME280;46415;47.536;19.066;2023-03-25T06:01:58;99666.25;;;10.79;100.00
60583;BME280;46415;47.536;19.066;2023-03-25T06:05:01;99665.75;;;10.88;100.00
60583;BME280;46415;47.536;19.066;2023-03-25T06:08:03;99664.34;;;10.82;100.00
60583;BME280;46415;47.536;19.066;2023-03-25T06:11:07;99670.66;;;10.92;100.00
60583;BME280;46415;47.536;19.066;2023-03-25T06:14:10;99671.78;;;10.88;100.00
60583;BME280;46415;47.536;19.066;2023-03-25T06:17:15;99674.94;;;10.93;100.00
60583;BME280;46415;47.536;19.066;2023-03-25T06:20:21;99679.22;;;10.94;100.00
60583;BME280;46415;47.536;19.066;2023-03-25T06:23:24;99672.50;;;11.06;100.00
60583;BME280;46415;47.536;19.066;2023-03-25T06:26:28;99670.12;;;11.17;100.00
60583;BME280;46415;47.536;19.066;2023-03-25T06:29:33;99672.44;;;11.22;100.00
60583;BME280;46415;47.536;19.066;2023-03-25T06:32:36;99666.25;;;11.24;100.00
60583;BME280;46415;47.536;19.066;2023-03-25T06:35:41;99669.41;;;11.29;100.00
60583;BME280;46415;47.536;19.066;2023-03-25T06:38:48;99666.37;;;11.37;100.00
60583;BME280;46415;47.536;19.066;2023-03-25T06:41:52;99663.44;;;11.43;100.00
60583;BME280;46415;47.536;19.066;2023-03-25T06:44:55;99680.91;;;11.55;100.00
60583;BME280;46415;47.536;19.066;2023-03-25T06:47:59;99681.37;;;11.62;100.00
60583;BME280;46415;47.536;19.066;2023-03-25T06:51:02;99682.09;;;11.64;100.00
60583;BME280;46415;47.536;19.066;2023-03-25T06:54:05;99689.22;;;11.76;100.00
60583;BME280;46415;47.536;19.066;2023-03-25T06:57:08;99697.53;;;11.97;100.00
60583;BME280;46415;47.536;19.066;2023-03-25T07:00:11;99699.34;;;12.23;100.00
60583;BME280;46415;47.536;19.066;2023-03-25T07:03:14;99705.03;;;12.44;100.00
60583;BME280;46415;47.536;19.066;2023-03-25T07:06:20;99695.41;;;12.58;100.00
60583;BME280;46415;47.536;19.066;2023-03-25T07:09:23;99698.97;;;12.84;100.00
60583;BME280;46415;47.536;19.066;2023-03-25T07:12:26;99706.25;;;13.06;100.00
60583;BME280;46415;47.536;19.066;2023-03-25T07:15:28;99704.37;;;13.08;100.00
60583;BME280;46415;47.536;19.066;2023-03-25T07:18:32;99708.50;;;13.12;100.00
60583;BME280;46415;47.536;19.066;2023-03-25T07:21:34;99713.84;;;13.23;100.00
60583;BME280;46415;47.536;19.066;2023-03-25T07:24:38;99710.38;;;13.49;100.00
60583;BME280;46415;47.536;19.066;2023-03-25T07:27:40;99712.44;;;13.44;100.00
60583;BME280;46415;47.536;19.066;2023-03-25T07:30:43;99724.34;;;13.48;100.00
60583;BME280;46415;47.536;19.066;2023-03-25T07:33:46;99722.94;;;13.70;100.00
60583;BME280;46415;47.536;19.066;2023-03-25T07:36:49;99718.87;;;13.91;100.00
60583;BME280;46415;47.536;19.066;2023-03-25T07:39:52;99717.19;;;14.15;99.86
60583;BME280;46415;47.536;19.066;2023-03-25T07:42:55;99724.78;;;14.18;99.46
60583;BME280;46415;47.536;19.066;2023-03-25T07:45:57;99732.34;;;14.23;92.57
60583;BME280;46415;47.536;19.066;2023-03-25T07:49:04;99728.25;;;14.06;96.23
60583;BME280;46415;47.536;19.066;2023-03-25T07:52:06;99716.59;;;13.99;97.99
60583;BME280;46415;47.536;19.066;2023-03-25T07:55:09;99723.25;;;13.90;99.01
60583;BME280;46415;47.536;19.066;2023-03-25T07:58:12;99729.31;;;14.04;97.28
60583;BME280;46415;47.536;19.066;2023-03-25T08:01:15;99732.00;;;14.27;96.34
60583;BME280;46415;47.536;19.066;2023-03-25T08:04:18;99717.06;;;14.42;93.20
60583;BME280;46415;47.536;19.066;2023-03-25T08:07:20;99722.69;;;14.49;93.33
60583;BME280;46415;47.536;19.066;2023-03-25T08:10:23;99723.25;;;14.78;92.73
60583;BME280;46415;47.536;19.066;2023-03-25T08:13:26;99720.72;;;14.52;91.60
60583;BME280;46415;47.536;19.066;2023-03-25T08:16:29;99720.16;;;14.60;91.79
60583;BME280;46415;47.536;19.066;2023-03-25T08:19:32;99731.31;;;14.75;89.61
60583;BME280;46415;47.536;19.066;2023-03-25T08:22:35;99729.22;;;15.03;88.96
60583;BME280;46415;47.536;19.066;2023-03-25T08:25:39;99716.72;;;14.96;83.11
60583;BME280;46415;47.536;19.066;2023-03-25T08:28:45;99731.94;;;15.26;85.19
60583;BME280;46415;47.536;19.066;2023-03-25T08:31:49;99710.38;;;15.35;85.12
60583;BME280;46415;47.536;19.066;2023-03-25T08:34:54;99719.06;;;15.59;83.16
60583;BME280;46415;47.536;19.066;2023-03-25T08:37:57;99722.31;;;15.50;79.98
60583;BME280;46415;47.536;19.066;2023-03-25T08:41:03;99719.59;;;15.51;78.46
60583;BME280;46415;47.536;19.066;2023-03-25T08:44:06;99720.53;;;15.50;80.60
60583;BME280;46415;47.536;19.066;2023-03-25T08:47:09;99716.09;;;15.40;80.84
60583;BME280;46415;47.536;19.066;2023-03-25T08:50:12;99729.50;;;15.59;76.68
60583;BME280;46415;47.536;19.066;2023-03-25T08:53:15;99719.19;;;15.45;77.39
60583;BME280;46415;47.536;19.066;2023-03-25T08:56:18;99715.12;;;15.54;80.32
60583;BME280;46415;47.536;19.066;2023-03-25T08:59:21;99713.81;;;15.59;76.39
60583;BME280;46415;47.536;19.066;2023-03-25T09:02:24;99700.66;;;15.72;80.34
60583;BME280;46415;47.536;19.066;2023-03-25T09:05:27;99695.06;;;15.76;75.29
60583;BME280;46415;47.536;19.066;2023-03-25T09:08:30;99707.19;;;15.66;73.77
60583;BME280;46415;47.536;19.066;2023-03-25T09:11:34;99706.34;;;15.66;74.07
60583;BME280;46415;47.536;19.066;2023-03-25T09:14:39;99700.19;;;15.67;74.38
60583;BME280;46415;47.536;19.066;2023-03-25T09:17:42;99706.00;;;15.81;75.64
60583;BME280;46415;47.536;19.066;2023-03-25T09:20:45;99710.09;;;15.97;73.55
60583;BME280;46415;47.536;19.066;2023-03-25T09:23:50;99715.44;;;16.06;72.87
60583;BME280;46415;47.536;19.066;2023-03-25T09:26:52;99708.44;;;15.96;70.37
60583;BME280;46415;47.536;19.066;2023-03-25T09:29:55;99706.53;;;16.20;73.51
60583;BME280;46415;47.536;19.066;2023-03-25T09:32:57;99709.88;;;16.44;70.82
60583;BME280;46415;47.536;19.066;2023-03-25T09:36:02;99711.06;;;16.40;68.59
60583;BME280;46415;47.536;19.066;2023-03-25T09:39:05;99700.47;;;16.64;69.83
60583;BME280;46415;47.536;19.066;2023-03-25T09:45:45;99694.00;;;16.46;67.86
60583;BME280;46415;47.536;19.066;2023-03-25T09:48:50;99707.25;;;16.55;66.67
60583;BME280;46415;47.536;19.066;2023-03-25T09:51:54;99699.03;;;16.38;65.18
60583;BME280;46415;47.536;19.066;2023-03-25T09:55:05;99709.25;;;16.41;65.45
60583;BME280;46415;47.536;19.066;2023-03-25T10:11:38;99719.50;;;17.20;63.52
60583;BME280;46415;47.536;19.066;2023-03-25T10:21:43;99710.25;;;18.20;53.90
60583;BME280;46415;47.536;19.066;2023-03-25T10:24:52;99710.03;;;18.32;54.95
60583;BME280;46415;47.536;19.066;2023-03-25T10:27:58;99706.06;;;18.17;53.97
60583;BME280;46415;47.536;19.066;2023-03-25T10:31:04;99701.28;;;17.92;55.16
60583;BME280;46415;47.536;19.066;2023-03-25T10:34:16;99709.63;;;17.44;57.64
60583;BME280;46415;47.536;19.066;2023-03-25T10:37:27;99710.31;;;17.26;58.17
60583;BME280;46415;47.536;19.066;2023-03-25T10:40:34;99717.00;;;17.50;58.27
60583;BME280;46415;47.536;19.066;2023-03-25T10:43:39;99716.34;;;17.69;58.20
60583;BME280;46415;47.536;19.066;2023-03-25T10:46:46;99713.09;;;17.45;57.38
60583;BME280;46415;47.536;19.066;2023-03-25T10:49:53;99702.91;;;17.51;53.81
60583;BME280;46415;47.536;19.066;2023-03-25T10:52:56;99713.28;;;17.94;52.56
60583;BME280;46415;47.536;19.066;2023-03-25T10:56:10;99699.09;;;17.97;52.36
60583;BME280;46415;47.536;19.066;2023-03-25T11:02:26;99704.94;;;17.80;52.83
60583;BME280;46415;47.536;19.066;2023-03-25T11:05:30;99715.38;;;17.38;52.46
60583;BME280;46415;47.536;19.066;2023-03-25T11:08:32;99729.56;;;16.93;53.28
60583;BME280;46415;47.536;19.066;2023-03-25T11:11:35;99712.88;;;16.62;52.99
60583;BME280;46415;47.536;19.066;2023-03-25T11:14:39;99711.97;;;16.84;53.42
60583;BME280;46415;47.536;19.066;2023-03-25T11:17:46;99710.56;;;16.57;53.90
60583;BME280;46415;47.536;19.066;2023-03-25T11:20:52;99713.56;;;16.42;54.74
60583;BME280;46415;47.536;19.066;2023-03-25T11:23:57;99708.91;;;16.34;56.84
60583;BME280;46415;47.536;19.066;2023-03-25T11:27:02;99717.72;;;16.11;59.55
60583;BME280;46415;47.536;19.066;2023-03-25T11:30:15;99722.75;;;15.44;63.77
60583;BME280;46415;47.536;19.066;2023-03-25T11:33:20;99710.38;;;15.59;65.60
60583;BME280;46415;47.536;19.066;2023-03-25T11:36:30;99717.44;;;15.91;61.09
60583;BME280;46415;47.536;19.066;2023-03-25T11:39:38;99711.28;;;16.04;58.42
60583;BME280;46415;47.536;19.066;2023-03-25T11:42:43;99707.03;;;16.14;56.40
60583;BME280;46415;47.536;19.066;2023-03-25T11:45:51;99695.13;;;16.32;55.67
60583;BME280;46415;47.536;19.066;2023-03-25T11:48:55;99714.50;;;16.18;55.04
60583;BME280;46415;47.536;19.066;2023-03-25T11:52:01;99709.94;;;15.87;54.29
60583;BME280;46415;47.536;19.066;2023-03-25T11:55:05;99720.94;;;15.57;54.20
60583;BME280;46415;47.536;19.066;2023-03-25T11:58:17;99730.41;;;15.47;55.36
60583;BME280;46415;47.536;19.066;2023-03-25T12:01:25;99718.03;;;15.73;54.66
60583;BME280;46415;47.536;19.066;2023-03-25T12:04:29;99720.13;;;16.25;52.80
60583;BME280;46415;47.536;19.066;2023-03-25T12:07:47;99718.91;;;16.29;52.18
60583;BME280;46415;47.536;19.066;2023-03-25T12:11:04;99724.84;;;16.76;50.53
60583;BME280;46415;47.536;19.066;2023-03-25T12:31:27;99707.75;;;16.60;50.77
60583;BME280;46415;47.536;19.066;2023-03-25T12:45:35;99690.22;;;16.50;48.53
60583;BME280;46415;47.536;19.066;2023-03-25T12:52:00;99672.09;;;17.12;46.44
60583;BME280;46415;47.536;19.066;2023-03-25T13:09:02;99662.69;;;17.09;45.65
60583;BME280;46415;47.536;19.066;2023-03-25T13:12:25;99668.09;;;16.97;44.93
60583;BME280;46415;47.536;19.066;2023-03-25T13:15:43;99660.72;;;17.23;43.96
60583;BME280;46415;47.536;19.066;2023-03-25T13:18:56;99658.37;;;16.77;44.61
60583;BME280;46415;47.536;19.066;2023-03-25T13:22:07;99652.97;;;16.24;45.35
60583;BME280;46415;47.536;19.066;2023-03-25T13:25:18;99663.47;;;16.13;46.91
60583;BME280;46415;47.536;19.066;2023-03-25T13:28:30;99655.09;;;16.41;46.38
60583;BME280;46415;47.536;19.066;2023-03-25T13:31:42;99662.44;;;16.58;45.34
60583;BME280;46415;47.536;19.066;2023-03-25T13:34:52;99658.87;;;16.70;44.77
60583;BME280;46415;47.536;19.066;2023-03-25T13:38:00;99673.78;;;16.70;43.79
60583;BME280;46415;47.536;19.066;2023-03-25T13:41:23;99659.16;;;16.67;43.72
60583;BME280;46415;47.536;19.066;2023-03-25T13:44:39;99668.91;;;16.54;44.09
60583;BME280;46415;47.536;19.066;2023-03-25T13:51:05;99653.75;;;16.69;42.88
60583;BME280;46415;47.536;19.066;2023-03-25T13:54:19;99663.44;;;17.00;43.74
60583;BME280;46415;47.536;19.066;2023-03-25T14:10:36;99656.38;;;16.69;43.23
60583;BME280;46415;47.536;19.066;2023-03-25T14:13:44;99668.09;;;16.97;43.09
60583;BME280;46415;47.536;19.066;2023-03-25T14:16:52;99668.16;;;16.86;43.35
60583;BME280;46415;47.536;19.066;2023-03-25T14:19:58;99669.97;;;16.52;43.74
60583;BME280;46415;47.536;19.066;2023-03-25T14:23:05;99664.13;;;16.48;44.50
60583;BME280;46415;47.536;19.066;2023-03-25T14:26:09;99656.00;;;16.85;45.10
60583;BME280;46415;47.536;19.066;2023-03-25T14:29:23;99667.47;;;16.72;44.14
60583;BME280;46415;47.536;19.066;2023-03-25T14:32:37;99657.34;;;16.68;43.98
60583;BME280;46415;47.536;19.066;2023-03-25T14:35:46;99649.72;;;16.54;44.61
60583;BME280;46415;47.536;19.066;2023-03-25T14:38:53;99659.28;;;16.32;44.73
60583;BME280;46415;47.536;19.066;2023-03-25T14:42:07;99653.94;;;16.01;45.17
60583;BME280;46415;47.536;19.066;2023-03-25T14:45:38;99656.31;;;15.92;46.03
60583;BME280;46415;47.536;19.066;2023-03-25T14:48:52;99660.22;;;15.98;45.25
60583;BME280;46415;47.536;19.066;2023-03-25T14:51:57;99656.41;;;15.91;45.96
60583;BME280;46415;47.536;19.066;2023-03-25T14:55:07;99657.72;;;15.85;45.22
60583;BME280;46415;47.536;19.066;2023-03-25T14:58:18;99658.19;;;15.79;46.28
60583;BME280;46415;47.536;19.066;2023-03-25T15:01:29;99657.34;;;15.68;46.04
60583;BME280;46415;47.536;19.066;2023-03-25T15:04:36;99660.31;;;15.63;46.00
60583;BME280;46415;47.536;19.066;2023-03-25T15:07:45;99654.97;;;15.54;46.54
60583;BME280;46415;47.536;19.066;2023-03-25T15:11:05;99652.44;;;15.52;47.51
60583;BME280;46415;47.536;19.066;2023-03-25T15:14:17;99652.13;;;15.33;47.04
60583;BME280;46415;47.536;19.066;2023-03-25T15:17:53;99655.69;;;15.32;47.30
60583;BME280;46415;47.536;19.066;2023-03-25T15:24:12;99662.41;;;15.47;47.17
60583;BME280;46415;47.536;19.066;2023-03-25T15:27:34;99667.16;;;15.42;47.00
60583;BME280;46415;47.536;19.066;2023-03-25T15:30:53;99659.06;;;15.45;45.87
60583;BME280;46415;47.536;19.066;2023-03-25T15:54:44;99647.34;;;16.51;42.80
60583;BME280;46415;47.536;19.066;2023-03-25T15:57:52;99655.56;;;16.46;42.27
60583;BME280;46415;47.536;19.066;2023-03-25T16:00:58;99654.28;;;16.18;43.36
60583;BME280;46415;47.536;19.066;2023-03-25T16:04:14;99641.56;;;16.25;42.46
60583;BME280;46415;47.536;19.066;2023-03-25T16:07:22;99652.50;;;16.95;40.99
60583;BME280;46415;47.536;19.066;2023-03-25T16:10:32;99644.47;;;18.31;38.66
60583;BME280;46415;47.536;19.066;2023-03-25T16:13:37;99651.84;;;19.06;36.31
60583;BME280;46415;47.536;19.066;2023-03-25T16:16:45;99651.84;;;20.28;35.01
60583;BME280;46415;47.536;19.066;2023-03-25T16:19:51;99641.78;;;21.04;33.27
60583;BME280;46415;47.536;19.066;2023-03-25T16:22:57;99649.56;;;20.88;32.32
60583;BME280;46415;47.536;19.066;2023-03-25T16:26:00;99652.41;;;19.00;34.74
60583;BME280;46415;47.536;19.066;2023-03-25T16:29:29;99659.78;;;16.92;38.29
60583;BME280;46415;47.536;19.066;2023-03-25T16:32:33;99651.44;;;15.77;41.39
60583;BME280;46415;47.536;19.066;2023-03-25T16:35:40;99657.97;;;15.01;42.66
60583;BME280;46415;47.536;19.066;2023-03-25T16:38:44;99658.16;;;14.51;45.09
60583;BME280;46415;47.536;19.066;2023-03-25T16:41:51;99658.09;;;14.14;44.48
60583;BME280;46415;47.536;19.066;2023-03-25T16:45:01;99657.19;;;14.15;45.08
60583;BME280;46415;47.536;19.066;2023-03-25T16:48:06;99657.19;;;13.90;46.13
60583;BME280;46415;47.536;19.066;2023-03-25T16:51:22;99658.25;;;13.75;45.58
60583;BME280;46415;47.536;19.066;2023-03-25T16:54:37;99663.56;;;13.61;46.42
60583;BME280;46415;47.536;19.066;2023-03-25T16:57:44;99666.66;;;13.53;46.12
60583;BME280;46415;47.536;19.066;2023-03-25T17:00:51;99657.06;;;13.41;46.59
60583;BME280;46415;47.536;19.066;2023-03-25T17:04:36;99668.13;;;13.32;47.24
60583;BME280;46415;47.536;19.066;2023-03-25T17:07:47;99664.44;;;13.22;47.82
60583;BME280;46415;47.536;19.066;2023-03-25T17:10:54;99667.69;;;13.11;47.74
60583;BME280;46415;47.536;19.066;2023-03-25T17:14:01;99670.56;;;12.94;48.08
60583;BME280;46415;47.536;19.066;2023-03-25T17:17:56;99661.91;;;12.81;48.76
60583;BME280;46415;47.536;19.066;2023-03-25T17:20:36;99666.75;;;12.73;48.99
60583;BME280;46415;47.536;19.066;2023-03-25T17:27:23;99676.09;;;12.62;49.29
60583;BME280;46415;47.536;19.066;2023-03-25T17:33:35;99677.25;;;12.44;50.00
60583;BME280;46415;47.536;19.066;2023-03-25T17:36:42;99680.75;;;12.43;49.96
60583;BME280;46415;47.536;19.066;2023-03-25T17:39:50;99689.13;;;12.34;50.43
60583;BME280;46415;47.536;19.066;2023-03-25T17:42:54;99683.00;;;12.35;50.45
60583;BME280;46415;47.536;19.066;2023-03-25T17:45:58;99681.97;;;12.38;50.39
60583;BME280;46415;47.536;19.066;2023-03-25T17:49:13;99688.19;;;12.35;50.79
60583;BME280;46415;47.536;19.066;2023-03-25T17:52:16;99695.09;;;12.36;50.52
60583;BME280;46415;47.536;19.066;2023-03-25T17:55:19;99683.38;;;12.29;50.72
60583;BME280;46415;47.536;19.066;2023-03-25T17:58:22;99694.72;;;12.00;52.08
60583;BME280;46415;47.536;19.066;2023-03-25T18:01:26;99687.13;;;11.97;52.22
60583;BME280;46415;47.536;19.066;2023-03-25T18:04:29;99698.16;;;12.00;52.07
60583;BME280;46415;47.536;19.066;2023-03-25T18:07:32;99695.38;;;12.17;51.92
60583;BME280;46415;47.536;19.066;2023-03-25T18:10:36;99707.34;;;12.06;51.89
60583;BME280;46415;47.536;19.066;2023-03-25T18:13:40;99710.06;;;12.18;51.73
60583;BME280;46415;47.536;19.066;2023-03-25T18:19:14;99722.97;;;12.20;53.30
60583;BME280;46415;47.536;19.066;2023-03-25T18:22:18;99722.97;;;12.20;53.30
60583;BME280;46415;47.536;19.066;2023-03-25T18:25:22;99721.88;;;11.50;55.26
60583;BME280;46415;47.536;19.066;2023-03-25T18:28:26;99720.38;;;11.32;56.68
60583;BME280;46415;47.536;19.066;2023-03-25T18:31:29;99722.59;;;11.08;58.72
60583;BME280;46415;47.536;19.066;2023-03-25T18:34:32;99729.47;;;10.93;59.36
60583;BME280;46415;47.536;19.066;2023-03-25T18:37:35;99741.81;;;11.35;56.31
60583;BME280;46415;47.536;19.066;2023-03-25T18:40:38;99740.13;;;11.64;55.16
60583;BME280;46415;47.536;19.066;2023-03-25T18:43:41;99744.72;;;11.75;54.62
60583;BME280;46415;47.536;19.066;2023-03-25T18:46:44;99741.69;;;11.82;54.57
60583;BME280;46415;47.536;19.066;2023-03-25T18:49:47;99752.44;;;11.76;54.73